createdAt,value
2023-03-24T00:01:56.461Z,4.10
2023-03-24T00:04:25.222Z,3.28
2023-03-24T00:06:52.586Z,3.65
2023-03-24T00:09:19.384Z,3.25
2023-03-24T00:11:46.073Z,3.22
2023-03-24T00:14:12.914Z,3.20
2023-03-24T00:16:42.934Z,3.03
2023-03-24T00:19:10.951Z,2.92
2023-03-24T00:21:37.953Z,3.17
2023-03-24T00:24:05.932Z,2.60
2023-03-24T00:26:32.822Z,2.38
2023-03-24T00:28:59.550Z,2.35
2023-03-24T00:31:26.465Z,1.98
2023-03-24T00:33:54.077Z,2.38
2023-03-24T00:36:23.218Z,2.03
2023-03-24T00:38:50.470Z,2.42
2023-03-24T00:41:20.201Z,2.20
2023-03-24T00:43:48.364Z,2.25
2023-03-24T00:46:27.627Z,2.15
2023-03-24T00:49:03.019Z,2.38
2023-03-24T00:51:37.896Z,2.30
2023-03-24T00:54:05.509Z,1.90
2023-03-24T00:56:33.663Z,1.95
2023-03-24T00:59:02.568Z,1.85
2023-03-24T01:01:33.335Z,2.05
2023-03-24T01:04:00.558Z,1.92
2023-03-24T01:06:27.277Z,1.83
2023-03-24T01:08:54.489Z,1.60
2023-03-24T01:11:23.127Z,1.90
2023-03-24T01:13:50.609Z,1.77
2023-03-24T01:16:17.638Z,1.92
2023-03-24T01:18:45.512Z,1.83
2023-03-24T01:21:12.955Z,1.73
2023-03-24T01:23:42.068Z,1.80
2023-03-24T01:26:10.668Z,1.80
2023-03-24T01:28:41.264Z,1.50
2023-03-24T01:31:10.063Z,1.80
2023-03-24T01:33:38.171Z,1.60
2023-03-24T01:36:06.250Z,1.50
2023-03-24T01:38:33.420Z,1.60
2023-03-24T01:41:00.260Z,1.65
2023-03-24T01:43:31.515Z,1.60
2023-03-24T01:46:03.286Z,1.77
2023-03-24T01:48:53.271Z,1.80
2023-03-24T01:51:23.664Z,1.90
2023-03-24T01:54:07.638Z,2.10
2023-03-24T01:56:38.317Z,2.10
2023-03-24T01:59:14.849Z,2.13
2023-03-24T02:01:42.071Z,2.45
2023-03-24T02:04:09.103Z,2.53
2023-03-24T02:06:41.488Z,2.22
2023-03-24T02:09:09.250Z,1.98
2023-03-24T02:11:37.088Z,2.22
2023-03-24T02:14:04.896Z,2.30
2023-03-24T02:16:42.250Z,2.75
2023-03-24T02:19:44.902Z,2.10
2023-03-24T02:22:36.106Z,2.60
2023-03-24T02:25:43.361Z,2.80
2023-03-24T02:28:32.266Z,2.58
2023-03-24T02:31:34.473Z,2.85
2023-03-24T02:34:10.383Z,3.00
2023-03-24T02:36:59.586Z,2.60
2023-03-24T02:39:29.363Z,2.25
2023-03-24T02:42:08.083Z,2.20
2023-03-24T02:44:42.034Z,2.00
2023-03-24T02:47:41.002Z,2.60
2023-03-24T02:50:35.601Z,1.92
2023-03-24T02:53:13.535Z,2.60
2023-03-24T02:56:01.318Z,2.20
2023-03-24T02:58:51.717Z,1.98
2023-03-24T03:01:31.766Z,1.40
2023-03-24T03:04:03.772Z,1.70
2023-03-24T03:06:35.064Z,2.00
2023-03-24T03:09:07.855Z,1.80
2023-03-24T03:11:34.538Z,1.80
2023-03-24T03:14:15.784Z,1.92
2023-03-24T03:16:45.549Z,1.85
2023-03-24T03:19:23.944Z,1.80
2023-03-24T03:21:50.726Z,1.88
2023-03-24T03:24:32.711Z,1.90
2023-03-24T03:27:02.690Z,1.83
2023-03-24T03:29:34.305Z,1.92
2023-03-24T03:32:08.162Z,1.80
2023-03-24T03:34:55.884Z,1.70
2023-03-24T03:37:38.070Z,1.77
2023-03-24T03:40:13.530Z,1.40
2023-03-24T03:42:40.267Z,1.70
2023-03-24T03:45:10.495Z,1.90
2023-03-24T03:47:37.256Z,1.50
2023-03-24T03:50:05.066Z,1.60
2023-03-24T03:52:31.849Z,1.95
2023-03-24T03:54:58.906Z,1.52
2023-03-24T03:57:25.683Z,1.50
2023-03-24T03:59:52.379Z,1.52
2023-03-24T04:02:39.060Z,1.30
2023-03-24T04:05:14.262Z,1.70
2023-03-24T04:08:04.987Z,1.70
2023-03-24T04:10:54.518Z,1.48
2023-03-24T04:13:42.902Z,2.17
2023-03-24T04:16:09.532Z,1.67
2023-03-24T04:19:07.324Z,1.75
2023-03-24T04:22:09.390Z,1.52
2023-03-24T04:25:17.664Z,1.30
2023-03-24T04:28:17.825Z,1.58
2023-03-24T04:30:58.225Z,1.20
2023-03-24T04:33:39.645Z,1.55
2023-03-24T04:36:19.489Z,1.63
2023-03-24T04:38:57.721Z,1.38
2023-03-24T04:41:26.922Z,1.52
2023-03-24T04:43:58.086Z,1.40
2023-03-24T04:46:28.973Z,1.48
2023-03-24T04:48:59.505Z,1.50
2023-03-24T04:51:32.271Z,1.52
2023-03-24T04:54:05.793Z,1.48
2023-03-24T04:56:49.257Z,1.60
2023-03-24T04:59:20.859Z,1.95
2023-03-24T05:01:50.545Z,1.38
2023-03-24T05:04:27.473Z,1.52
2023-03-24T05:07:13.336Z,1.40
2023-03-24T05:09:43.257Z,1.73
2023-03-24T05:12:17.068Z,1.80
2023-03-24T05:14:47.283Z,1.70
2023-03-24T05:17:17.270Z,2.00
2023-03-24T05:19:48.033Z,1.80
2023-03-24T05:22:15.277Z,1.30
2023-03-24T05:24:42.756Z,1.30
2023-03-24T05:27:16.363Z,1.30
2023-03-24T05:29:46.987Z,1.17
2023-03-24T05:32:14.641Z,1.35
2023-03-24T05:34:44.983Z,1.63
2023-03-24T05:37:14.683Z,1.42
2023-03-24T05:39:42.450Z,2.22
2023-03-24T05:42:12.677Z,1.33
2023-03-24T05:44:43.313Z,1.77
2023-03-24T05:47:10.970Z,2.38
2023-03-24T05:49:38.638Z,2.05
2023-03-24T05:52:11.837Z,2.30
2023-03-24T05:54:42.512Z,2.00
2023-03-24T05:57:25.552Z,2.45
2023-03-24T06:00:02.655Z,1.70
2023-03-24T06:02:36.339Z,2.00
2023-03-24T06:05:09.047Z,2.15
2023-03-24T06:07:52.063Z,2.03
2023-03-24T06:10:21.678Z,2.40
2023-03-24T06:12:49.342Z,2.30
2023-03-24T06:15:18.296Z,1.98
2023-03-24T06:17:50.950Z,2.65
2023-03-24T06:20:21.435Z,2.15
2023-03-24T06:22:52.493Z,2.20
2023-03-24T06:25:26.785Z,2.22
2023-03-24T06:27:54.669Z,2.08
2023-03-24T06:30:25.468Z,2.10
2023-03-24T06:32:53.671Z,2.38
2023-03-24T06:35:21.963Z,2.50
2023-03-24T06:37:52.598Z,2.15
2023-03-24T06:40:20.354Z,1.88
2023-03-24T06:42:51.499Z,2.15
2023-03-24T06:45:24.985Z,2.20
2023-03-24T06:47:58.751Z,2.30
2023-03-24T06:50:35.279Z,2.10
2023-03-24T06:53:03.412Z,2.20
2023-03-24T06:55:31.879Z,2.25
2023-03-24T06:57:59.903Z,2.20
2023-03-24T07:00:33.210Z,2.28
2023-03-24T07:03:03.281Z,2.38
2023-03-24T07:06:10.343Z,2.22
2023-03-24T07:08:53.924Z,2.53
2023-03-24T07:11:23.748Z,2.53
2023-03-24T07:13:52.724Z,2.20
2023-03-24T07:16:27.684Z,2.13
2023-03-24T07:19:06.569Z,1.70
2023-03-24T07:21:34.498Z,1.75
2023-03-24T07:24:04.996Z,2.50
2023-03-24T07:26:34.807Z,2.00
2023-03-24T07:29:02.680Z,2.20
2023-03-24T07:31:30.079Z,2.25
2023-03-24T07:34:12.436Z,2.90
2023-03-24T07:36:42.842Z,1.80
2023-03-24T07:39:10.660Z,2.35
2023-03-24T07:41:38.007Z,2.05
2023-03-24T07:44:06.181Z,2.08
2023-03-24T07:46:34.595Z,1.90
2023-03-24T07:49:12.209Z,2.67
2023-03-24T07:51:44.507Z,2.90
2023-03-24T07:54:12.691Z,2.67
2023-03-24T07:56:40.803Z,2.40
2023-03-24T07:59:11.831Z,2.33
2023-03-24T08:01:40.695Z,2.30
2023-03-24T08:04:10.034Z,2.80
2023-03-24T08:06:40.533Z,2.33
2023-03-24T08:09:08.485Z,2.65
2023-03-24T08:11:36.980Z,3.13
2023-03-24T08:14:04.951Z,2.45
2023-03-24T08:16:37.525Z,1.95
2023-03-24T08:19:05.908Z,2.58
2023-03-24T08:21:33.877Z,1.83
2023-03-24T08:24:04.797Z,2.03
2023-03-24T08:26:36.112Z,2.67
2023-03-24T08:29:04.648Z,2.97
2023-03-24T08:31:33.845Z,2.70
2023-03-24T08:34:06.649Z,2.42
2023-03-24T08:39:16.358Z,2.55
2023-03-24T08:42:00.124Z,2.65
2023-03-24T08:44:29.849Z,2.72
2023-03-24T08:47:12.247Z,2.50
2023-03-24T08:49:45.847Z,2.42
2023-03-24T08:52:13.820Z,2.60
2023-03-24T08:54:41.685Z,2.35
2023-03-24T08:57:22.321Z,2.50
2023-03-24T08:59:51.349Z,2.38
2023-03-24T09:02:28.440Z,1.90
2023-03-24T09:05:00.591Z,2.10
2023-03-24T09:07:36.102Z,2.70
2023-03-24T09:10:06.749Z,2.30
2023-03-24T09:12:42.219Z,2.38
2023-03-24T09:15:13.315Z,2.08
2023-03-24T09:17:45.489Z,1.75
2023-03-24T09:20:19.686Z,1.90
2023-03-24T09:22:50.807Z,1.67
2023-03-24T09:25:26.121Z,2.38
2023-03-24T09:27:57.477Z,1.67
2023-03-24T09:30:25.489Z,1.60
2023-03-24T09:32:59.753Z,1.48
2023-03-24T09:35:30.914Z,1.73
2023-03-24T09:38:02.059Z,1.77
2023-03-24T09:40:46.424Z,1.65
2023-03-24T09:43:25.213Z,2.17
2023-03-24T09:45:56.393Z,1.77
2023-03-24T09:48:55.910Z,1.77
2023-03-24T09:51:25.099Z,1.58
2023-03-24T09:54:20.184Z,1.63
2023-03-24T09:56:59.857Z,1.83
2023-03-24T09:59:37.332Z,1.40
2023-03-24T10:02:36.195Z,1.67
2023-03-24T10:05:13.770Z,1.67
2023-03-24T10:07:55.625Z,1.50
2023-03-24T10:11:02.310Z,1.42
2023-03-24T10:13:49.212Z,1.40
2023-03-24T10:16:23.592Z,1.70
2023-03-24T10:19:03.647Z,1.50
2023-03-24T10:22:14.275Z,1.20
2023-03-24T10:25:05.782Z,1.42
2023-03-24T10:27:56.503Z,1.35
2023-03-24T10:30:45.347Z,1.80
2023-03-24T10:33:18.626Z,1.50
2023-03-24T10:36:02.710Z,1.30
2023-03-24T10:38:30.779Z,1.35
2023-03-24T10:41:02.732Z,1.42
2023-03-24T10:43:44.504Z,1.50
2023-03-24T10:46:26.958Z,1.40
2023-03-24T10:49:30.608Z,1.27
2023-03-24T10:54:39.785Z,0.85
2023-03-24T10:57:23.009Z,0.90
2023-03-24T11:00:14.396Z,1.00
2023-03-24T11:02:43.536Z,0.75
2023-03-24T11:05:13.914Z,0.80
2023-03-24T11:07:47.656Z,1.35
2023-03-24T11:10:17.720Z,0.82
2023-03-24T11:12:55.003Z,0.98
2023-03-24T11:15:32.457Z,0.90
2023-03-24T11:18:12.863Z,0.70
2023-03-24T11:20:44.970Z,0.70
2023-03-24T11:23:18.382Z,0.80
2023-03-24T11:25:53.772Z,0.73
2023-03-24T11:28:27.982Z,1.10
2023-03-24T11:30:56.182Z,0.65
2023-03-24T11:33:35.659Z,0.90
2023-03-24T11:36:31.018Z,0.70
2023-03-24T11:39:17.739Z,0.65
2023-03-24T11:41:53.272Z,0.80
2023-03-24T11:44:23.570Z,0.80
2023-03-24T11:47:27.606Z,0.70
2023-03-24T11:50:11.611Z,0.60
2023-03-24T11:53:08.891Z,0.55
2023-03-24T11:56:06.840Z,0.52
2023-03-24T11:58:43.970Z,0.80
2023-03-24T12:01:25.825Z,0.50
2023-03-24T12:04:16.959Z,0.63
2023-03-24T12:07:08.544Z,0.50
2023-03-24T12:10:00.145Z,0.55
2023-03-24T12:12:44.642Z,0.45
2023-03-24T12:15:37.506Z,0.60
2023-03-24T12:18:23.679Z,0.70
2023-03-24T12:21:27.018Z,0.50
2023-03-24T12:24:31.130Z,0.50
2023-03-24T12:27:13.501Z,0.40
2023-03-24T12:30:30.373Z,0.40
2023-03-24T12:33:05.809Z,0.40
2023-03-24T12:36:15.458Z,0.40
2023-03-24T12:38:55.683Z,0.38
2023-03-24T12:41:46.448Z,0.40
2023-03-24T12:44:21.398Z,0.30
2023-03-24T12:47:18.866Z,0.40
2023-03-24T12:50:13.357Z,0.38
2023-03-24T12:53:05.001Z,0.32
2023-03-24T12:56:10.252Z,0.40
2023-03-24T12:58:58.778Z,0.50
2023-03-24T13:01:27.553Z,0.50
2023-03-24T13:03:59.951Z,0.20
2023-03-24T13:06:32.834Z,0.30
2023-03-24T13:09:19.735Z,0.35
2023-03-24T13:11:59.470Z,0.43
2023-03-24T13:14:47.932Z,0.40
2023-03-24T13:17:27.831Z,0.30
2023-03-24T13:19:58.634Z,0.30
2023-03-24T13:22:26.231Z,0.28
2023-03-24T13:24:55.293Z,0.30
2023-03-24T13:27:40.261Z,0.22
2023-03-24T13:30:16.341Z,0.38
2023-03-24T13:32:53.712Z,0.57
2023-03-24T13:36:01.985Z,0.60
2023-03-24T13:39:00.904Z,0.63
2023-03-24T13:41:32.728Z,0.70
2023-03-24T13:44:19.071Z,0.73
2023-03-24T13:47:24.068Z,0.82
2023-03-24T13:50:14.484Z,0.50
2023-03-24T13:52:46.584Z,1.00
2023-03-24T13:55:31.860Z,1.67
2023-03-24T13:58:02.533Z,0.90
2023-03-24T14:00:31.419Z,0.75
2023-03-24T14:03:40.891Z,1.15
2023-03-24T14:06:09.680Z,0.80
2023-03-24T14:08:53.359Z,0.80
2023-03-24T14:11:38.832Z,1.00
2023-03-24T14:14:18.748Z,0.77
2023-03-24T14:17:02.214Z,0.73
2023-03-24T14:19:43.789Z,0.80
2023-03-24T14:22:22.422Z,0.63
2023-03-24T14:25:05.214Z,0.88
2023-03-24T14:27:38.844Z,0.90
2023-03-24T14:30:15.116Z,0.38
2023-03-24T14:32:47.833Z,0.50
2023-03-24T14:35:45.381Z,0.50
2023-03-24T14:38:23.750Z,0.95
2023-03-24T14:40:58.704Z,0.75
2023-03-24T14:43:31.071Z,0.75
2023-03-24T14:46:07.415Z,0.70
2023-03-24T14:49:13.497Z,0.73
2023-03-24T14:51:56.609Z,0.73
2023-03-24T14:54:31.966Z,0.70
2023-03-24T14:57:03.620Z,1.00
2023-03-24T15:00:13.276Z,1.15
2023-03-24T15:02:42.808Z,0.80
2023-03-24T15:05:21.973Z,0.77
2023-03-24T15:08:04.930Z,0.75
2023-03-24T15:10:54.779Z,0.50
2023-03-24T15:13:39.258Z,0.70
2023-03-24T15:16:27.052Z,0.88
2023-03-24T15:19:22.008Z,0.77
2023-03-24T15:22:11.464Z,0.90
2023-03-24T15:24:43.128Z,0.63
2023-03-24T15:27:29.347Z,0.50
2023-03-24T15:30:04.887Z,0.82
2023-03-24T15:32:39.876Z,1.23
2023-03-24T15:35:09.938Z,0.50
2023-03-24T15:37:41.725Z,0.80
2023-03-24T15:40:33.081Z,0.80
2023-03-24T15:43:10.166Z,0.63
2023-03-24T15:45:57.923Z,0.90
2023-03-24T15:48:35.639Z,0.70
2023-03-24T15:51:12.102Z,0.70
2023-03-24T15:53:52.522Z,0.85
2023-03-24T15:56:28.398Z,0.90
2023-03-24T15:59:16.467Z,1.00
2023-03-24T16:01:51.169Z,0.90
2023-03-24T16:04:24.165Z,1.02
2023-03-24T16:09:30.713Z,1.05
2023-03-24T16:12:01.442Z,0.90
2023-03-24T16:14:32.554Z,0.85
2023-03-24T16:17:02.976Z,1.58
2023-03-24T16:19:33.907Z,1.52
2023-03-24T16:22:01.743Z,1.00
2023-03-24T16:24:36.035Z,1.15
2023-03-24T16:27:06.833Z,1.10
2023-03-24T16:29:34.447Z,1.10
2023-03-24T16:32:02.550Z,0.90
2023-03-24T16:34:30.785Z,0.90
2023-03-24T16:36:58.695Z,1.05
2023-03-24T16:39:28.764Z,1.05
2023-03-24T16:41:57.135Z,0.80
2023-03-24T16:44:25.360Z,1.23
2023-03-24T16:46:54.447Z,1.63
2023-03-24T16:49:23.337Z,4.05
2023-03-24T16:51:54.629Z,1.70
2023-03-24T16:54:22.902Z,3.33
2023-03-24T16:56:52.173Z,3.33
2023-03-24T16:59:21.693Z,3.15
2023-03-24T17:01:57.521Z,2.13
2023-03-24T17:04:27.986Z,1.58
2023-03-24T17:06:57.084Z,1.05
2023-03-24T17:09:30.381Z,0.90
2023-03-24T17:11:59.129Z,0.98
2023-03-24T17:14:27.233Z,1.00
2023-03-24T17:17:04.669Z,0.85
2023-03-24T17:19:36.691Z,0.88
2023-03-24T17:22:06.676Z,0.75
2023-03-24T17:24:45.537Z,0.88
2023-03-24T17:27:19.446Z,0.70
2023-03-24T17:29:48.031Z,0.80
2023-03-24T17:32:19.916Z,1.00
2023-03-24T17:34:57.819Z,1.00
2023-03-24T17:37:27.157Z,1.10
2023-03-24T17:39:57.113Z,1.08
2023-03-24T17:42:29.053Z,1.23
2023-03-24T17:44:56.916Z,1.38
2023-03-24T17:47:26.927Z,1.30
2023-03-24T17:49:55.207Z,1.40
2023-03-24T17:52:28.924Z,1.30
2023-03-24T17:54:57.518Z,1.83
2023-03-24T17:57:30.170Z,1.23
2023-03-24T18:00:00.940Z,1.17
2023-03-24T18:02:31.443Z,1.25
2023-03-24T18:05:02.346Z,1.40
2023-03-24T18:07:33.141Z,1.10
2023-03-24T18:10:01.628Z,1.10
2023-03-24T18:12:34.903Z,1.52
2023-03-24T18:15:03.042Z,1.25
2023-03-24T18:17:31.527Z,1.33
2023-03-24T18:20:10.652Z,1.77
2023-03-24T18:22:41.539Z,1.50
2023-03-24T18:25:15.656Z,1.60
2023-03-24T18:27:44.003Z,2.22
2023-03-24T18:30:13.338Z,4.53
2023-03-24T18:32:41.492Z,3.30
2023-03-24T18:35:11.762Z,3.33
2023-03-24T18:37:43.704Z,1.60
2023-03-24T18:40:20.063Z,1.40
2023-03-24T18:42:48.065Z,2.72
2023-03-24T18:45:19.094Z,1.65
2023-03-24T18:47:48.517Z,1.50
2023-03-24T18:50:16.994Z,1.30
2023-03-24T18:52:45.244Z,1.50
2023-03-24T18:55:15.275Z,1.33
2023-03-24T18:57:48.951Z,3.95
2023-03-24T19:00:21.049Z,4.00
2023-03-24T19:02:48.937Z,3.10
2023-03-24T19:05:16.846Z,2.33
2023-03-24T19:07:46.291Z,1.63
2023-03-24T19:10:14.547Z,1.70
2023-03-24T19:12:42.730Z,1.40
2023-03-24T19:15:11.011Z,1.40
2023-03-24T19:17:38.878Z,1.58
2023-03-24T19:20:10.131Z,1.52
2023-03-24T19:22:41.240Z,1.83
2023-03-24T19:25:10.483Z,1.85
2023-03-24T19:27:38.630Z,1.52
2023-03-24T19:30:09.982Z,1.75
2023-03-24T19:32:38.497Z,1.65
2023-03-24T19:35:07.644Z,1.60
2023-03-24T19:37:35.828Z,1.30
2023-03-24T19:40:09.268Z,1.65
2023-03-24T19:42:43.441Z,1.67
2023-03-24T19:45:21.851Z,1.50
2023-03-24T19:47:50.335Z,1.90
2023-03-24T19:50:19.035Z,1.60
2023-03-24T19:52:48.733Z,1.33
2023-03-24T19:55:24.619Z,1.20
2023-03-24T19:57:57.362Z,1.33
2023-03-24T20:00:26.720Z,1.50
2023-03-24T20:02:55.234Z,1.20
2023-03-24T20:05:23.720Z,2.17
2023-03-24T20:07:54.558Z,1.70
2023-03-24T20:10:23.334Z,1.38
2023-03-24T20:12:54.610Z,1.33
2023-03-24T20:15:29.156Z,1.33
2023-03-24T20:18:03.030Z,1.67
2023-03-24T20:20:33.036Z,1.10
2023-03-24T20:23:05.364Z,1.55
2023-03-24T20:25:39.311Z,1.70
2023-03-24T20:28:09.465Z,1.52
2023-03-24T20:30:37.481Z,1.20
2023-03-24T20:33:07.361Z,1.25
2023-03-24T20:35:36.767Z,1.35
2023-03-24T20:38:07.462Z,1.20
2023-03-24T20:40:38.120Z,1.52
2023-03-24T20:43:05.940Z,1.25
2023-03-24T20:45:40.469Z,1.10
2023-03-24T20:48:08.169Z,1.05
2023-03-24T20:50:40.289Z,1.30
2023-03-24T20:53:08.666Z,1.73
2023-03-24T20:55:37.043Z,1.35
2023-03-24T20:58:08.867Z,1.45
2023-03-24T21:00:38.517Z,1.90
2023-03-24T21:03:06.677Z,1.40
2023-03-24T21:05:37.821Z,1.70
2023-03-24T21:08:05.996Z,1.15
2023-03-24T21:10:36.833Z,1.30
2023-03-24T21:13:04.873Z,1.30
2023-03-24T21:15:32.969Z,1.40
2023-03-24T21:18:00.749Z,1.55
2023-03-24T21:20:28.822Z,1.40
2023-03-24T21:22:56.116Z,1.63
2023-03-24T21:25:28.140Z,1.13
2023-03-24T21:27:55.152Z,2.15
2023-03-24T21:30:22.970Z,1.45
2023-03-24T21:32:51.726Z,1.27
2023-03-24T21:35:19.775Z,1.40
2023-03-24T21:37:47.268Z,1.40
2023-03-24T21:40:14.377Z,1.45
2023-03-24T21:42:41.921Z,1.40
2023-03-24T21:45:15.492Z,1.50
2023-03-24T21:47:42.952Z,1.02
2023-03-24T21:50:11.625Z,1.20
2023-03-24T21:52:41.781Z,1.50
2023-03-24T21:55:10.535Z,1.25
2023-03-24T21:57:37.197Z,1.23
2023-03-24T22:00:10.661Z,1.40
2023-03-24T22:02:38.481Z,1.92
2023-03-24T22:05:05.554Z,1.38
2023-03-24T22:07:37.712Z,1.63
2023-03-24T22:10:05.796Z,1.90
2023-03-24T22:12:33.190Z,1.13
2023-03-24T22:15:00.168Z,1.30
2023-03-24T22:17:27.243Z,1.70
2023-03-24T22:19:54.059Z,1.63
2023-03-24T22:22:20.861Z,1.27
2023-03-24T22:24:47.577Z,1.17
2023-03-24T22:27:14.381Z,1.42
2023-03-24T22:29:41.089Z,1.42
2023-03-24T22:32:08.045Z,1.48
2023-03-24T22:34:34.942Z,1.08
2023-03-24T22:37:01.842Z,0.90
2023-03-24T22:39:28.693Z,1.90
2023-03-24T22:41:57.042Z,1.30
2023-03-24T22:44:24.127Z,0.70
2023-03-24T22:46:50.876Z,1.00
2023-03-24T22:49:17.752Z,0.82
2023-03-24T22:51:44.525Z,1.27
2023-03-24T22:54:11.297Z,0.88
2023-03-24T22:56:38.003Z,0.95
2023-03-24T22:59:04.821Z,1.30
2023-03-24T23:01:31.587Z,1.98
2023-03-24T23:03:58.312Z,1.30
2023-03-24T23:06:27.609Z,1.23
2023-03-24T23:08:55.486Z,1.45
2023-03-24T23:11:22.206Z,1.58
2023-03-24T23:13:50.527Z,1.23
2023-03-24T23:16:17.488Z,1.20
2023-03-24T23:18:44.785Z,1.42
2023-03-24T23:21:14.074Z,1.10
2023-03-24T23:23:41.647Z,1.73
2023-03-24T23:26:13.874Z,1.30
2023-03-24T23:28:53.275Z,1.50
2023-03-24T23:31:25.256Z,1.00
2023-03-24T23:33:58.398Z,0.80
2023-03-24T23:36:26.501Z,0.70
2023-03-24T23:38:54.821Z,0.65
2023-03-24T23:41:21.626Z,0.60
2023-03-24T23:43:50.214Z,0.55
2023-03-24T23:46:17.978Z,0.50
2023-03-24T23:48:44.696Z,0.60
2023-03-24T23:51:12.026Z,0.70
2023-03-24T23:53:39.072Z,0.90
2023-03-24T23:56:07.853Z,0.38
2023-03-24T23:58:36.770Z,0.90
